Flight Track Log - Related Links

Times and Time Zones

All times are in EDT time to prevent confusion due to time zone crossing. See the ASH3770 flight status page for this flight to view local times or setup timezone preferences in your user account.

Time Position Orientation Groundspeed Altitude Reporting Facility
EDT Latitude Longitude Course Direction KTS MPH feet Rate Location/Type
Thu 12:56:28 PM 38.9167 -77.4500 191° South 171 197 1,700  Level Potomac TRACON
Thu 12:57:28 PM 38.8500 -77.4667 191° South 248 285 2,700 1,800 Climbing Potomac TRACON
Thu 12:58:28 PM 38.7833 -77.4833 191° South 275 316 5,300 2,876 Climbing Potomac TRACON
Thu 12:59:29 PM 38.7333 -77.5333 218° Southwest 267 307 8,500 2,571 Climbing Potomac TRACON
Thu 01:00:27 PM 38.7442 -77.6253 279° West 264 304 10,400 1,692 Climbing Washington Center
Thu 01:01:26 PM 38.7650 -77.7403 283° West 308 354 11,800 1,765 Climbing Washington Center
Thu 01:02:26 PM 38.7858 -77.8475 284° West 346 398 13,900 1,900 Climbing Washington Center
Thu 01:03:26 PM 38.8089 -77.9600 285° West 340 391 15,600 1,600 Climbing Washington Center
Thu 01:04:26 PM 38.8275 -78.0697 282° West 340 391 17,100 1,636 Climbing Washington Center
Thu 01:05:27 PM 38.8517 -78.2067 283° West 345 397 18,900 1,736 Climbing Washington Center
Thu 01:06:27 PM 38.8533 -78.3186 271° West 352 405 20,600 1,500 Climbing Washington Center
Thu 01:07:27 PM 38.8522 -78.4597 269° West 357 411 21,900 1,311 Climbing Washington Center
Thu 01:08:26 PM 38.8533 -78.5825 271° West 363 418 23,200 1,450 Climbing Washington Center
Thu 01:09:27 PM 38.8517 -78.7239 269° West 368 423 24,800 1,300 Climbing Washington Center
Thu 01:10:26 PM 38.8503 -78.8544 269° West 368 423 25,800 800 Climbing Washington Center
Thu 01:11:27 PM 38.8447 -78.9875 267° West 363 418 26,400 550 Climbing Washington Center
Thu 01:12:26 PM 38.8156 -79.1272 255° West 382 440 26,900 504 Climbing Washington Center
Thu 01:13:26 PM 38.7744 -79.2503 247° West 419 482 27,400 550 Climbing Washington Center
Thu 01:14:26 PM 38.7347 -79.3894 250° West 424 488 28,000 650 Climbing Washington Center
Thu 01:15:26 PM 38.6944 -79.5336 250° West 424 488 28,700 800 Climbing Washington Center
Thu 01:16:26 PM 38.6517 -79.6911 251° West 424 488 29,600 893 Climbing Washington Center
Thu 01:17:27 PM 38.6156 -79.8350 252° West 424 488 30,500 900 Climbing Washington Center
Thu 01:18:26 PM 38.5811 -79.9767 253° West 424 488 31,400 908 Climbing Washington Center
Thu 01:19:26 PM 38.5533 -80.1078 255° West 419 482 32,300 947 Climbing Washington Center
Thu 01:21:17 PM 38.4983 -80.3428 253° West 400 460 34,100 1,006 Climbing Indianapolis Center
Thu 01:22:19 PM 38.4656 -80.4911 254° West 388 447 35,200 823 Climbing Indianapolis Center
Thu 01:23:21 PM 38.4353 -80.6203 253° West 381 438 35,800 387 Climbing Indianapolis Center
Thu 01:24:23 PM 38.4056 -80.7508 254° West 381 438 36,000 97 Climbing Indianapolis Center
Thu 01:25:25 PM 38.3736 -80.8853 253° West 392 451 36,000  Level Indianapolis Center
Thu 01:26:27 PM 38.3425 -81.0233 254° West 401 461 36,000  Level Indianapolis Center
Thu 01:27:28 PM 38.3033 -81.1894 253° West 406 467 36,000  Level Indianapolis Center
Thu 01:28:30 PM 38.2692 -81.3292 253° West 410 472 36,000  Level Indianapolis Center
Thu 01:29:32 PM 38.2369 -81.4700 254° West 409 471 36,000  Level Indianapolis Center
Thu 01:30:34 PM 38.2028 -81.6103 253° West 412 474 36,000  Level Indianapolis Center
Thu 01:31:36 PM 38.1692 -81.7514 253° West 415 478 36,000  Level Indianapolis Center
Thu 01:32:38 PM 38.1356 -81.8917 253° West 414 476 36,000  Level Indianapolis Center
Thu 01:33:40 PM 38.1014 -82.0331 253° West 416 479 36,000  Level Indianapolis Center
Thu 01:34:42 PM 38.0658 -82.1808 253° West 417 480 36,000  Level Indianapolis Center
Thu 01:35:44 PM 38.0253 -82.3436 252° West 418 481 36,000  Level Indianapolis Center
Thu 01:36:46 PM 37.9908 -82.4836 253° West 419 482 36,000  Level Indianapolis Center
Thu 01:37:48 PM 37.9558 -82.6253 253° West 421 484 36,000  Level Indianapolis Center
Thu 01:38:00 PM 37.9451 -82.6373 253° West  Level FlightAware Approximate
Thu 01:38:50 PM 37.9208 -82.7667 253° West 421 484 36,000  Level Indianapolis Center
Thu 01:39:51 PM 37.8850 -82.9058 252° West 418 481 36,000  Level Indianapolis Center
Thu 01:40:53 PM 37.8500 -83.0464 253° West 418 481 36,000  Level Indianapolis Center
Thu 01:41:55 PM 37.8097 -83.2083 253° West 414 476 36,000  Level Indianapolis Center
Thu 01:43:59 PM 37.7389 -83.4792 252° West 407 468 36,000  Level Indianapolis Center
Thu 01:45:01 PM 37.7036 -83.6147 252° West 406 467 36,000  Level Indianapolis Center
Thu 01:46:02 PM 37.6689 -83.7500 252° West 405 466 36,000  Level Indianapolis Center
Thu 01:47:04 PM 37.6278 -83.9067 252° West 404 465 36,000  Level Indianapolis Center
Thu 01:48:06 PM 37.5925 -84.0417 252° West 405 466 36,000  Level Indianapolis Center
Thu 01:49:08 PM 37.5564 -84.1772 251° West 407 468 36,000  Level Indianapolis Center
Thu 01:50:10 PM 37.5214 -84.3083 251° West 399 459 36,000  Level Indianapolis Center
Thu 01:51:12 PM 37.4856 -84.4425 251° West 404 465 36,000  Level Indianapolis Center
Thu 01:52:14 PM 37.4497 -84.5750 251° West 401 461 36,000  Level Indianapolis Center
Thu 01:53:15 PM 37.4081 -84.7306 251° West 401 461 36,000  Level Indianapolis Center
Thu 01:54:17 PM 37.3708 -84.8650 251° West 404 465 36,000  Level Indianapolis Center
Thu 01:55:19 PM 37.3333 -85.0006 251° West 409 471 36,000  Level Indianapolis Center
Thu 01:56:21 PM 37.2964 -85.1344 251° West 408 470 36,000  Level Indianapolis Center
Thu 01:57:23 PM 37.2597 -85.2667 251° West 402 463 36,000  Level Indianapolis Center
Thu 01:58:25 PM 37.2236 -85.3975 251° West 398 458 36,000  Level Indianapolis Center
Thu 01:59:27 PM 37.1850 -85.5414 251° West 397 457 36,000  Level Indianapolis Center
Thu 02:00:08 PM 37.1647 -85.6275 254° West 392 451 36,000  Level Memphis Center
Thu 02:01:08 PM 37.1258 -85.7572 249° West 392 451 36,000  Level Memphis Center
Thu 02:02:08 PM 37.0869 -85.8922 250° West 392 451 36,000 300 Level Memphis Center
Thu 02:03:08 PM 37.0497 -86.0214 250° West 392 451 36,600 600 Climbing Memphis Center
Thu 02:04:08 PM 37.0144 -86.1431 250° West 387 445 37,200 500 Climbing Memphis Center
Thu 02:05:08 PM 36.9811 -86.2642 251° West 382 440 37,600 400 Climbing Memphis Center
Thu 02:06:08 PM 36.9472 -86.3828 250° West 372 428 38,000 200 Climbing Memphis Center
Thu 02:07:08 PM 36.9008 -86.4939 242° Southwest 367 422 38,000  Level Memphis Center
Thu 02:08:08 PM 36.8458 -86.6003 237° Southwest 372 428 38,000  Level Memphis Center
Thu 02:09:08 PM 36.7886 -86.7067 236° Southwest 377 434 38,000  Level Memphis Center
Thu 02:10:09 PM 36.7333 -86.8128 237° Southwest 377 434 38,000  Level Memphis Center
Thu 02:11:08 PM 36.6778 -86.9186 237° Southwest 377 434 38,000  Level Memphis Center
Thu 02:12:08 PM 36.6203 -87.0244 236° Southwest 377 434 38,000  Level Memphis Center
Thu 02:13:08 PM 36.5647 -87.1275 236° Southwest 377 434 38,000  Level Memphis Center
Thu 02:14:08 PM 36.5069 -87.2306 235° Southwest 377 434 38,000  Level Memphis Center
Thu 02:15:08 PM 36.4492 -87.3358 236° Southwest 377 434 38,000  Level Memphis Center
Thu 02:16:08 PM 36.3931 -87.4411 237° Southwest 377 434 38,000  Level Memphis Center
Thu 02:17:08 PM 36.3431 -87.5306 235° Southwest 372 428 38,000  Level Memphis Center
Thu 02:18:08 PM 36.2828 -87.6331 234° Southwest 367 422 38,000  Level Memphis Center
Thu 02:19:08 PM 36.2289 -87.7353 237° Southwest 362 417 38,000  Level Memphis Center
Thu 02:20:08 PM 36.1725 -87.8347 235° Southwest 362 417 38,000  Level Memphis Center
Thu 02:21:08 PM 36.1161 -87.9342 235° Southwest 362 417 38,000  Level Memphis Center
Thu 02:22:08 PM 36.0575 -88.0386 235° Southwest 362 417 38,000  Level Memphis Center
Thu 02:23:08 PM 36.0072 -88.1297 236° Southwest 362 417 38,000  Level Memphis Center
Thu 02:24:08 PM 35.9486 -88.2339 235° Southwest 357 411 38,000  Level Memphis Center
Thu 02:25:08 PM 35.8919 -88.3353 235° Southwest 362 417 38,000  Level Memphis Center
Thu 02:26:08 PM 35.8331 -88.4392 235° Southwest 367 422 38,000  Level Memphis Center
Thu 02:27:08 PM 35.7761 -88.5428 236° Southwest 367 422 38,000  Level Memphis Center
Thu 02:28:08 PM 35.7172 -88.6464 235° Southwest 367 422 38,000  Level Memphis Center
Thu 02:29:08 PM 35.6519 -88.7578 234° Southwest 367 422 38,000  Level Memphis Center
Thu 02:30:08 PM 35.5969 -88.8633 237° Southwest 367 422 38,000  Level Memphis Center
Thu 02:31:08 PM 35.5378 -88.9639 234° Southwest 372 428 38,000  Level Memphis Center
Thu 02:32:08 PM 35.4803 -89.0669 236° Southwest 372 428 38,000  Level Memphis Center
Thu 02:33:08 PM 35.4167 -89.1697 233° Southwest 380 437 38,000  Level Memphis Center
Thu 02:34:08 PM 35.3572 -89.2750 235° Southwest 380 437 38,000  Level Memphis Center
Thu 02:35:08 PM 35.3058 -89.3697 236° Southwest 375 432 38,000  Level Memphis Center
Thu 02:36:08 PM 35.2461 -89.4722 235° Southwest 380 437 38,000  Level Memphis Center
Thu 02:37:08 PM 35.1883 -89.5744 235° Southwest 380 437 38,000  Level Memphis Center
Thu 02:38:08 PM 35.1306 -89.6767 235° Southwest 380 437 38,000  Level Memphis Center
Thu 02:39:08 PM 35.0706 -89.7811 235° Southwest 380 437 38,000  Level Memphis Center
Thu 02:40:08 PM 35.0106 -89.8881 236° Southwest 380 437 38,000  Level Memphis Center
Thu 02:41:08 PM 34.9483 -89.9897 233° Southwest 380 437 38,000  Level Memphis Center
Thu 02:42:08 PM 34.8861 -90.0939 234° Southwest 380 437 38,000  Level Memphis Center
Thu 02:43:08 PM 34.8236 -90.1953 233° Southwest 380 437 38,000  Level Memphis Center
Thu 02:44:08 PM 34.7633 -90.2964 234° Southwest 380 437 38,000  Level Memphis Center
Thu 02:45:08 PM 34.7028 -90.3950 233° Southwest 380 437 38,000  Level Memphis Center
Thu 02:46:08 PM 34.6422 -90.4986 235° Southwest 380 437 38,000  Level Memphis Center
Thu 02:47:08 PM 34.5814 -90.6019 234° Southwest 380 437 38,000  Level Memphis Center
Thu 02:48:08 PM 34.5144 -90.7100 233° Southwest 374 430 38,000  Level Memphis Center
Thu 02:49:08 PM 34.4536 -90.8106 234° Southwest 379 436 38,000  Level Memphis Center
Thu 02:50:08 PM 34.4011 -90.9211 240° Southwest 379 436 38,000  Level Memphis Center
Thu 02:51:08 PM 34.3567 -91.0364 245° Southwest 379 436 38,000  Level Memphis Center
Thu 02:52:08 PM 34.3100 -91.1517 244° Southwest 379 436 38,000  Level Memphis Center
Thu 02:53:08 PM 34.2656 -91.2694 245° Southwest 386 444 38,000  Level Memphis Center
Thu 02:54:08 PM 34.2186 -91.3794 243° Southwest 381 438 38,000  Level Memphis Center
Thu 02:55:08 PM 34.1739 -91.4944 245° Southwest 381 438 38,000  Level Memphis Center
Thu 02:56:08 PM 34.1269 -91.6117 244° Southwest 381 438 38,000  Level Memphis Center
Thu 02:57:08 PM 34.0797 -91.7239 243° Southwest 381 438 38,000  Level Memphis Center
Thu 02:58:08 PM 34.0367 -91.8411 246° West 381 438 38,000  Level Memphis Center
Thu 03:00:19 PM 33.9372 -92.0889 244° Southwest 390 449 38,000  Level Fort Worth Center
Thu 03:01:19 PM 33.8919 -92.2042 245° Southwest 390 449 38,000  Level Fort Worth Center
Thu 03:02:20 PM 33.8447 -92.3194 244° Southwest 390 449 38,000  Level Fort Worth Center
Thu 03:03:19 PM 33.7969 -92.4322 243° Southwest 395 455 38,000  Level Fort Worth Center
Thu 03:04:19 PM 33.7492 -92.5450 243° Southwest 395 455 38,000  Level Fort Worth Center
Thu 03:05:20 PM 33.7033 -92.6547 243° Southwest 390 449 38,000  Level Fort Worth Center
Thu 03:06:19 PM 33.6556 -92.7697 244° Southwest 390 449 38,000  Level Fort Worth Center
Thu 03:07:19 PM 33.6075 -92.8844 243° Southwest 390 449 38,000  Level Fort Worth Center
Thu 03:08:20 PM 33.5594 -92.9992 243° Southwest 390 449 38,000  Level Fort Worth Center
Thu 03:09:19 PM 33.5114 -93.1136 243° Southwest 390 449 38,000  Level Fort Worth Center
Thu 03:10:19 PM 33.4631 -93.2281 243° Southwest 396 456 38,000  Level Fort Worth Center
Thu 03:11:20 PM 33.4125 -93.3422 242° Southwest 396 456 38,000  Level Fort Worth Center
Thu 03:12:19 PM 33.3719 -93.4436 244° Southwest 396 456 38,000  Level Fort Worth Center
Thu 03:13:19 PM 33.3214 -93.5603 243° Southwest 396 456 38,000  Level Fort Worth Center
Thu 03:14:19 PM 33.2706 -93.6742 242° Southwest 396 456 38,000  Level Fort Worth Center
Thu 03:15:19 PM 33.2194 -93.7881 242° Southwest 396 456 38,000  Level Fort Worth Center
Thu 03:16:19 PM 33.1686 -93.9094 243° Southwest 401 461 38,000  Level Fort Worth Center
Thu 03:17:20 PM 33.1197 -94.0278 244° Southwest 401 461 38,000  Level Fort Worth Center
Thu 03:18:19 PM 33.0686 -94.1439 242° Southwest 401 461 38,000  Level Fort Worth Center
Thu 03:19:19 PM 33.0175 -94.2647 243° Southwest 401 461 38,000  Level Fort Worth Center
Thu 03:20:20 PM 32.9639 -94.3828 242° Southwest 401 461 38,000  Level Fort Worth Center
Thu 03:21:19 PM 32.9103 -94.5033 242° Southwest 406 467 38,000  Level Fort Worth Center
Thu 03:22:19 PM 32.8569 -94.6336 244° Southwest 406 467 38,000  Level Fort Worth Center
Thu 03:23:20 PM 32.8053 -94.7539 243° Southwest 406 467 38,000  Level Fort Worth Center
Thu 03:24:19 PM 32.7514 -94.8742 242° Southwest 412 474 38,000  Level Fort Worth Center
Thu 03:25:19 PM 32.6953 -94.9967 241° Southwest 412 474 38,000  Level Fort Worth Center
Thu 03:26:20 PM 32.6433 -95.1164 243° Southwest 412 474 38,000  Level Fort Worth Center
Thu 03:27:19 PM 32.5892 -95.2386 242° Southwest 417 480 38,000  Level Fort Worth Center
Thu 03:28:19 PM 32.5328 -95.3583 241° Southwest 417 480 38,000  Level Fort Worth Center
Thu 03:29:20 PM 32.4906 -95.4553 243° Southwest 417 480 38,000  Level Fort Worth Center
Thu 03:30:19 PM 32.4281 -95.6092 244° Southwest 417 480 38,000  Level Fort Worth Center
Thu 03:31:20 PM 32.3733 -95.7308 242° Southwest 422 486 38,000  Level Fort Worth Center
Thu 03:32:19 PM 32.3164 -95.8550 242° Southwest 429 494 38,000  Level Fort Worth Center
Thu 03:33:19 PM 32.2614 -95.9736 241° Southwest 420 483 38,000  Level Fort Worth Center
Thu 03:34:19 PM 32.2128 -96.0875 243° Southwest 420 483 38,000  Level Fort Worth Center
Thu 03:35:19 PM 32.1511 -96.2061 238° Southwest 420 483 38,000  Level Fort Worth Center
Thu 03:36:31 PM 32.0961 -96.3467 245° Southwest 425 489 38,000  Level Fort Worth Center
Thu 03:37:31 PM 32.0303 -96.4797 240° Southwest 430 495 38,000  Level Fort Worth Center
Thu 03:38:31 PM 31.9747 -96.6003 242° Southwest 425 489 38,000  Level Fort Worth Center
Thu 03:39:31 PM 31.9150 -96.7331 242° Southwest 425 489 38,000 -500 Level Fort Worth Center
Thu 03:40:31 PM 31.8361 -96.8361 228° Southwest 425 489 37,000 -1,600 Descending Fort Worth Center
Thu 03:41:31 PM 31.7258 -96.9078 209° Southwest 437 503 34,800 -2,439 Descending Fort Worth Center
Thu 03:42:34 PM 31.6122 -96.9683 204° Southwest 462 532 32,000 -2,784 Descending Houston Center
Thu 03:43:36 PM 31.4953 -97.0392 207° Southwest 467 537 29,000 -2,784 Descending Houston Center
Thu 03:44:39 PM 31.3783 -97.1072 206° Southwest 466 536 26,200 -2,928 Descending Houston Center
Thu 03:45:41 PM 31.2447 -97.1872 207° Southwest 460 529 22,900 -2,903 Descending Houston Center
Thu 03:46:43 PM 31.1278 -97.2408 201° Southwest 444 511 20,200 -2,565 Descending Houston Center
Thu 03:47:45 PM 31.0181 -97.2825 198° South 429 494 17,600 -2,419 Descending Houston Center
Thu 03:48:47 PM 30.9172 -97.3225 199° South 413 475 15,200 -2,177 Descending Houston Center
Thu 03:49:49 PM 30.8078 -97.3639 198° South 354 407 13,100 -1,355 Descending Houston Center
Thu 03:50:51 PM 30.7147 -97.3728 185° South 328 377 12,400 -1,258 Descending Houston Center
Thu 03:51:53 PM 30.6289 -97.3689 178° South 309 356 10,500 -1,728 Descending Houston Center
Thu 03:52:56 PM 30.5453 -97.3656 178° South 301 346 8,800 -1,680 Descending Houston Center
Thu 03:53:58 PM 30.4653 -97.3644 179° South 289 333 7,000 -1,355 Descending Houston Center
Thu 03:55:00 PM 30.3875 -97.3611 178° South 280 322 6,000 -484 Descending Houston Center
Thu 03:56:02 PM 30.2972 -97.3600 179° South 277 319 6,000  Level Houston Center
Thu 03:57:04 PM 30.2211 -97.3664 184° South 270 311 6,000  Level Houston Center
Thu 03:58:06 PM 30.1653 -97.3881 199° South 217 250 6,000  Level Houston Center
Thu 03:59:08 PM 30.1106 -97.4083 198° South 207 238 6,000 -432 Level Houston Center
Thu 04:00:11 PM 30.0600 -97.4389 208° Southwest 200 230 5,100 -480 Descending Houston Center
Thu 04:01:13 PM 30.0342 -97.4914 240° Southwest 192 221 5,000 -387 Descending Houston Center
Thu 04:02:15 PM 30.0225 -97.5625 259° West 190 219 4,300 -823 Descending Houston Center
Thu 04:03:17 PM 30.0306 -97.6106 281° West 195 224 3,300 -1,113 Descending Houston Center
Thu 04:04:19 PM 30.0983 -97.6508 333° Northwest 225 259 2,000 -968 Descending Houston Center
Thu 04:05:21 PM 30.1431 -97.6572 353° North 186 214 1,300 -677 Descending Houston Center

Login

Don't have an account? Register now (free) for customized features, flight alerts, and more!